Map

Track Data

SID SEASON NUMBER BASIN SUBBASIN NAME ISO_TIME NATURE LAT LON WMO_WIND WMO_PRES WMO_AGENCY TRACK_TYPE DIST2LAND LANDFALL IFLAG USA_AGENCY USA_ATCF_ID USA_LAT USA_LON USA_RECORD USA_STATUS USA_WIND USA_PRES USA_SSHS USA_R34_NE USA_R34_SE USA_R34_SW USA_R34_NW USA_R50_NE USA_R50_SE USA_R50_SW USA_R50_NW USA_R64_NE USA_R64_SE USA_R64_SW USA_R64_NW USA_POCI USA_ROCI USA_RMW USA_EYE TOKYO_LAT TOKYO_LON TOKYO_GRADE TOKYO_WIND TOKYO_PRES TOKYO_R50_DIR TOKYO_R50_LONG TOKYO_R50_SHORT TOKYO_R30_DIR TOKYO_R30_LONG TOKYO_R30_SHORT TOKYO_LAND CMA_LAT CMA_LON CMA_CAT CMA_WIND CMA_PRES HKO_LAT HKO_LON HKO_CAT HKO_WIND HKO_PRES NEWDELHI_LAT NEWDELHI_LON NEWDELHI_GRADE NEWDELHI_WIND NEWDELHI_PRES NEWDELHI_CI NEWDELHI_DP NEWDELHI_POCI REUNION_LAT REUNION_LON REUNION_TYPE REUNION_WIND REUNION_PRES REUNION_TNUM REUNION_CI REUNION_RMW REUNION_R34_NE REUNION_R34_SE REUNION_R34_SW REUNION_R34_NW REUNION_R50_NE REUNION_R50_SE REUNION_R50_SW REUNION_R50_NW REUNION_R64_NE REUNION_R64_SE REUNION_R64_SW REUNION_R64_NW BOM_LAT BOM_LON BOM_TYPE BOM_WIND BOM_PRES BOM_TNUM BOM_CI BOM_RMW BOM_R34_NE BOM_R34_SE BOM_R34_SW BOM_R34_NW BOM_R50_NE BOM_R50_SE BOM_R50_SW BOM_R50_NW BOM_R64_NE BOM_R64_SE BOM_R64_SW BOM_R64_NW BOM_ROCI BOM_POCI BOM_EYE BOM_POS_METHOD BOM_PRES_METHOD NADI_LAT NADI_LON NADI_CAT NADI_WIND NADI_PRES WELLINGTON_LAT WELLINGTON_LON WELLINGTON_WIND WELLINGTON_PRES DS824_LAT DS824_LON DS824_STAGE DS824_WIND DS824_PRES TD9636_LAT TD9636_LON TD9636_STAGE TD9636_WIND TD9636_PRES TD9635_LAT TD9635_LON TD9635_WIND TD9635_PRES TD9635_ROCI NEUMANN_LAT NEUMANN_LON NEUMANN_CLASS NEUMANN_WIND NEUMANN_PRES MLC_LAT MLC_LON MLC_CLASS MLC_WIND MLC_PRES USA_GUST BOM_GUST BOM_GUST_PER REUNION_GUST REUNION_GUST_PER USA_SEAHGT USA_SEARAD_NE USA_SEARAD_SE USA_SEARAD_SW USA_SEARAD_NW STORM_SPEED STORM_DIR
1916042S18158 1916 10 SP EA NOT_NAMED 1916-02-10 23:00:00 NR -17.6000 157.600 main 737 732 __________O___ -1 -17.6000 157.600 7 8 169
1916042S18158 1916 10 SP EA NOT_NAMED 1916-02-11 00:00:00 NR -17.7399 157.612 main 732 715 __________P___ -1 -17.7399 157.612 7 8 175
1916042S18158 1916 10 SP EA NOT_NAMED 1916-02-11 03:00:00 NR -18.1533 157.645 main 711 690 __________P___ -1 -18.1533 157.645 7 8 176
1916042S18158 1916 10 SP EA NOT_NAMED 1916-02-11 06:00:00 NR -18.5443 157.674 main 690 678 __________P___ -1 -18.5443 157.674 7 7 177
1916042S18158 1916 10 SP EA NOT_NAMED 1916-02-11 09:00:00 NR -18.8958 157.693 main 678 672 __________P___ -1 -18.8958 157.693 7 7 0
1916042S18158 1916 10 SP EA NOT_NAMED 1916-02-11 11:00:00 NR -19.1000 157.700 main 672 670 __________O___ -1 -19.1000 157.700 7 6 177
1916042S18158 1916 10 SP EA NOT_NAMED 1916-02-11 12:00:00 NR -19.1915 157.701 main 670 666 __________P___ -1 -19.1915 157.701 7 5 184
1916042S18158 1916 10 SP EA NOT_NAMED 1916-02-11 15:00:00 NR -19.4348 157.693 main 666 663 __________P___ -1 -19.4348 157.693 7 5 186
1916042S18158 1916 10 SP EA NOT_NAMED 1916-02-11 18:00:00 NR -19.6606 157.671 main 661 660 __________P___ -1 -19.6606 157.671 7 5 187
1916042S18158 1916 10 SP EA NOT_NAMED 1916-02-11 21:00:00 NR -19.9065 157.633 main 669 668 __________P___ -1 -19.9065 157.633 7 5 188
1916042S18158 1916 10 SP EA NOT_NAMED 1916-02-11 23:00:00 NR -20.1000 157.600 main 668 667 __________O___ -1 -20.1000 157.600 7 6 189
1916042S18158 1916 10 SP EA NOT_NAMED 1916-02-12 00:00:00 NR -20.2170 157.584 main 667 637 __________P___ -1 -20.2170 157.584 7 8 188
1916042S18158 1916 10 SP EA NOT_NAMED 1916-02-12 03:00:00 NR -20.6059 157.527 main 637 604 __________P___ -1 -20.6059 157.527 7 8 188
1916042S18158 1916 10 SP EA NOT_NAMED 1916-02-12 06:00:00 NR -21.0374 157.454 main 604 558 __________P___ -1 -21.0374 157.454 7 9 189
1916042S18158 1916 10 SP EA NOT_NAMED 1916-02-12 09:00:00 NR -21.4926 157.367 main 558 528 __________P___ -1 -21.4926 157.367 7 9 191
1916042S18158 1916 10 SP EA NOT_NAMED 1916-02-12 11:00:00 NR -21.8000 157.300 main 528 521 __________O___ -1 -21.8000 157.300 7 9 194
1916042S18158 1916 10 SP EA NOT_NAMED 1916-02-12 12:00:00 NR -21.9209 157.246 main 513 477 __________P___ -1 -21.9209 157.246 7 8 204
1916042S18158 1916 10 SP EA NOT_NAMED 1916-02-12 15:00:00 NR -22.2783 157.065 main 477 434 __________P___ -1 -22.2783 157.065 7 8 203
1916042S18158 1916 10 SP EA NOT_NAMED 1916-02-12 18:00:00 NR -22.6763 156.898 main 434 403 __________P___ -1 -22.6763 156.898 7 9 195
1916042S18158 1916 10 SP EA NOT_NAMED 1916-02-12 21:00:00 NR -23.1775 156.800 main 397 378 __________P___ -1 -23.1775 156.800 7 11 185
1916042S18158 1916 10 SP EA NOT_NAMED 1916-02-12 23:00:00 NR -23.6000 156.800 main 378 369 __________O___ -1 -23.6000 156.800 7 14 178
1916042S18158 1916 10 SP EA NOT_NAMED 1916-02-13 00:00:00 NR -23.8760 156.805 main 365 347 __________P___ -1 -23.8760 156.805 7 19 176
1916042S18158 1916 10 SP EA NOT_NAMED 1916-02-13 03:00:00 NR -24.8290 156.895 main 353 352 __________P___ -1 -24.8290 156.895 7 20 172
1916042S18158 1916 10 SP EA NOT_NAMED 1916-02-13 06:00:00 NR -25.8757 157.123 main 384 384 __________P___ -1 -25.8757 157.123 7 22 165
1916042S18158 1916 10 SP EA NOT_NAMED 1916-02-13 09:00:00 NR -26.8952 157.522 main 410 410 __________P___ -1 -26.8952 157.522 7 21 157
1916042S18158 1916 10 SP EA NOT_NAMED 1916-02-13 11:00:00 NR -27.5000 157.900 main 429 429 __________O___ -1 -27.5000 157.900 7 21 148
1916042S18158 1916 10 SP EA NOT_NAMED 1916-02-13 12:00:00 NR -27.7675 158.126 main 443 443 __________P___ -1 -27.7675 158.126 7 20 136
1916042S18158 1916 10 SP EA NOT_NAMED 1916-02-13 15:00:00 NR -28.4368 158.935 main 517 517 __________P___ -1 -28.4368 158.935 7 20 127
1916042S18158 1916 10 SP EA NOT_NAMED 1916-02-13 18:00:00 NR -28.9486 159.899 main 612 612 __________P___ -1 -28.9486 159.899 7 20 117
1916042S18158 1916 10 SP MM NOT_NAMED 1916-02-13 21:00:00 NR -29.3573 160.963 main 719 719 __________P___ -1 -29.3573 160.963 7 20 113
1916042S18158 1916 10 SP MM NOT_NAMED 1916-02-13 23:00:00 NR -29.6000 161.700 main 788 __________O___ -1 -29.6000 161.700 7 21 111

Digital Typhoon Data and Search

About IBTrACS Database

This database is a web-friendly format of International Best Track Archive for Climate Stewardship (IBTrACS), a global best track data archive curated by NOAA dating back to 1842.

Updated: 2021-10-19